createdAt,value
2018-05-15T00:00:28.173Z,1008.23
2018-05-15T00:01:28.206Z,1008.18
2018-05-15T00:02:28.165Z,1008.21
2018-05-15T00:03:28.175Z,1008.24
2018-05-15T00:04:28.196Z,1008.23
2018-05-15T00:05:28.173Z,1008.23
2018-05-15T00:06:28.180Z,1008.22
2018-05-15T00:07:28.190Z,1008.21
2018-05-15T00:08:28.170Z,1008.17
2018-05-15T00:09:28.171Z,1008.19
2018-05-15T00:10:28.197Z,1008.19
2018-05-15T00:11:28.455Z,1008.16
2018-05-15T00:12:28.187Z,1008.22
2018-05-15T00:13:28.232Z,1008.21
2018-05-15T00:14:28.234Z,1008.23
2018-05-15T00:15:28.197Z,1008.24
2018-05-15T00:16:28.174Z,1008.22
2018-05-15T00:17:28.178Z,1008.24
2018-05-15T00:18:28.151Z,1008.22
2018-05-15T00:19:28.164Z,1008.25
2018-05-15T00:20:28.158Z,1008.24
2018-05-15T00:21:28.176Z,1008.29
2018-05-15T00:22:28.171Z,1008.27
2018-05-15T00:23:28.161Z,1008.27
2018-05-15T00:24:28.166Z,1008.29
2018-05-15T00:25:28.171Z,1008.33
2018-05-15T00:26:28.171Z,1008.29
2018-05-15T00:27:28.197Z,1008.25
2018-05-15T00:28:28.171Z,1008.30
2018-05-15T00:29:28.178Z,1008.31
2018-05-15T00:30:28.171Z,1008.28
2018-05-15T00:31:28.468Z,1008.29
2018-05-15T00:32:28.180Z,1008.31
2018-05-15T00:33:28.234Z,1008.32
2018-05-15T00:34:28.177Z,1008.34
2018-05-15T00:35:28.204Z,1008.30
2018-05-15T00:36:28.185Z,1008.31
2018-05-15T00:37:28.182Z,1008.30
2018-05-15T00:38:28.199Z,1008.32
2018-05-15T00:39:34.251Z,1008.32
2018-05-15T00:40:27.829Z,1008.35
2018-05-15T00:41:28.240Z,1008.34
2018-05-15T00:42:28.480Z,1008.31
2018-05-15T00:43:28.191Z,1008.30
2018-05-15T00:44:28.178Z,1008.30
2018-05-15T00:45:28.180Z,1008.31
2018-05-15T00:46:28.180Z,1008.35
2018-05-15T00:47:28.198Z,1008.38
2018-05-15T00:48:28.173Z,1008.36
2018-05-15T00:49:28.169Z,1008.37
2018-05-15T00:50:28.173Z,1008.33
2018-05-15T00:51:28.172Z,1008.36
2018-05-15T00:52:27.729Z,1008.35
2018-05-15T00:53:28.204Z,1008.32
2018-05-15T00:54:27.775Z,1008.37
2018-05-15T00:55:28.458Z,1008.34
2018-05-15T00:56:28.188Z,1008.42
2018-05-15T00:57:28.208Z,1008.41
2018-05-15T00:58:28.193Z,1008.44
2018-05-15T00:59:28.189Z,1008.40
2018-05-15T01:00:28.234Z,1008.41
2018-05-15T01:01:28.200Z,1008.37
2018-05-15T01:02:28.477Z,1008.43
2018-05-15T01:03:28.236Z,1008.43
2018-05-15T01:04:28.208Z,1008.43
2018-05-15T01:05:28.184Z,1008.41
2018-05-15T01:06:28.193Z,1008.41
2018-05-15T01:07:28.193Z,1008.43
2018-05-15T01:08:28.172Z,1008.41
2018-05-15T01:09:28.215Z,1008.42
2018-05-15T01:10:28.226Z,1008.42
2018-05-15T01:11:28.221Z,1008.45
2018-05-15T01:12:30.056Z,1008.41
2018-05-15T01:13:28.246Z,1008.42
2018-05-15T01:14:28.181Z,1008.42
2018-05-15T01:15:28.230Z,1008.39
2018-05-15T01:16:28.178Z,1008.36
2018-05-15T01:17:27.878Z,1008.38
2018-05-15T01:18:28.256Z,1008.41
2018-05-15T01:19:28.229Z,1008.39
2018-05-15T01:20:28.198Z,1008.40
2018-05-15T01:21:28.171Z,1008.42
2018-05-15T01:22:28.484Z,1008.41
2018-05-15T01:23:28.553Z,1008.37
2018-05-15T01:24:28.480Z,1008.38
2018-05-15T01:25:28.191Z,1008.39
2018-05-15T01:26:28.172Z,1008.41
2018-05-15T01:27:28.193Z,1008.38
2018-05-15T01:28:29.642Z,1008.37
2018-05-15T01:29:28.197Z,1008.42
2018-05-15T01:30:28.214Z,1008.44
2018-05-15T01:31:28.182Z,1008.41
2018-05-15T01:32:28.193Z,1008.42
2018-05-15T01:33:28.212Z,1008.41
2018-05-15T01:34:28.287Z,1008.40
2018-05-15T01:35:28.213Z,1008.39
2018-05-15T01:36:28.199Z,1008.40
2018-05-15T01:37:28.236Z,1008.40
2018-05-15T01:38:28.258Z,1008.41
2018-05-15T01:39:28.291Z,1008.36
2018-05-15T01:40:28.492Z,1008.39
2018-05-15T01:41:28.210Z,1008.40
2018-05-15T01:42:28.448Z,1008.38
2018-05-15T01:43:28.374Z,1008.38
2018-05-15T01:44:28.340Z,1008.33
2018-05-15T01:45:28.208Z,1008.37
2018-05-15T01:46:28.186Z,1008.34
2018-05-15T01:47:28.199Z,1008.38
2018-05-15T01:48:28.216Z,1008.37
2018-05-15T01:49:28.209Z,1008.34
2018-05-15T01:50:28.184Z,1008.36
2018-05-15T01:51:28.238Z,1008.32
2018-05-15T01:52:30.039Z,1008.36
2018-05-15T01:53:28.219Z,1008.30
2018-05-15T01:54:28.230Z,1008.31
2018-05-15T01:55:28.246Z,1008.34
2018-05-15T01:56:28.222Z,1008.36
2018-05-15T01:57:27.955Z,1008.37
2018-05-15T01:58:28.258Z,1008.34
2018-05-15T01:59:28.278Z,1008.34
2018-05-15T02:00:28.269Z,1008.36
2018-05-15T02:01:28.252Z,1008.34
2018-05-15T02:02:28.250Z,1008.37
2018-05-15T02:03:28.257Z,1008.40
2018-05-15T02:04:28.257Z,1008.39
2018-05-15T02:05:28.293Z,1008.42
2018-05-15T02:06:28.296Z,1008.39
2018-05-15T02:07:28.327Z,1008.40
2018-05-15T02:08:28.251Z,1008.40
2018-05-15T02:09:28.477Z,1008.42
2018-05-15T02:10:28.330Z,1008.39
2018-05-15T02:11:28.480Z,1008.39
2018-05-15T02:12:28.189Z,1008.40
2018-05-15T02:13:28.236Z,1008.41
2018-05-15T02:14:28.186Z,1008.40
2018-05-15T02:15:28.175Z,1008.36
2018-05-15T02:16:28.247Z,1008.39
2018-05-15T02:17:28.466Z,1008.41
2018-05-15T02:18:28.009Z,1008.40
2018-05-15T02:19:28.183Z,1008.40
2018-05-15T02:20:28.495Z,1008.39
2018-05-15T02:21:28.465Z,1008.40
2018-05-15T02:22:28.329Z,1008.46
2018-05-15T02:23:28.466Z,1008.43
2018-05-15T02:24:28.332Z,1008.43
2018-05-15T02:25:28.333Z,1008.53
2018-05-15T02:26:28.021Z,1008.53
2018-05-15T02:27:28.473Z,1008.54
2018-05-15T02:28:28.338Z,1008.55
2018-05-15T02:29:28.335Z,1008.54
2018-05-15T02:30:28.436Z,1008.60
2018-05-15T02:31:28.357Z,1008.63
2018-05-15T02:32:28.352Z,1008.57
2018-05-15T02:33:28.315Z,1008.58
2018-05-15T02:34:28.270Z,1008.55
2018-05-15T02:35:28.265Z,1008.61
2018-05-15T02:36:28.266Z,1008.61
2018-05-15T02:37:28.292Z,1008.59
2018-05-15T02:38:28.295Z,1008.60
2018-05-15T02:39:28.315Z,1008.60
2018-05-15T02:40:28.476Z,1008.60
2018-05-15T02:41:28.338Z,1008.59
2018-05-15T02:42:28.331Z,1008.61
2018-05-15T02:43:28.326Z,1008.55
2018-05-15T02:44:28.357Z,1008.60
2018-05-15T02:45:28.351Z,1008.58
2018-05-15T02:46:28.295Z,1008.59
2018-05-15T02:47:28.334Z,1008.61
2018-05-15T02:48:28.347Z,1008.59
2018-05-15T02:49:28.342Z,1008.62
2018-05-15T02:50:28.391Z,1008.62
2018-05-15T02:51:28.405Z,1008.63
2018-05-15T02:52:28.375Z,1008.61
2018-05-15T02:53:28.411Z,1008.62
2018-05-15T02:54:28.480Z,1008.66
2018-05-15T02:55:28.347Z,1008.64
2018-05-15T02:56:28.442Z,1008.66
2018-05-15T02:57:28.288Z,1008.64
2018-05-15T02:58:28.297Z,1008.64
2018-05-15T02:59:28.275Z,1008.67
2018-05-15T03:00:28.309Z,1008.69
2018-05-15T03:01:28.271Z,1008.69
2018-05-15T03:02:28.403Z,1008.65
2018-05-15T03:03:28.342Z,1008.66
2018-05-15T03:04:28.356Z,1008.67
2018-05-15T03:05:28.449Z,1008.66
2018-05-15T03:06:28.446Z,1008.67
2018-05-15T03:07:28.443Z,1008.69
2018-05-15T03:08:28.495Z,1008.69
2018-05-15T03:09:27.705Z,1008.68
2018-05-15T03:10:28.438Z,1008.72
2018-05-15T03:11:28.411Z,1008.70
2018-05-15T03:12:30.262Z,1008.72
2018-05-15T03:13:28.504Z,1008.74
2018-05-15T03:14:28.497Z,1008.74
2018-05-15T03:15:28.487Z,1008.72
2018-05-15T03:16:28.481Z,1008.76
2018-05-15T03:17:28.416Z,1008.74
2018-05-15T03:18:28.501Z,1008.78
2018-05-15T03:19:28.478Z,1008.82
2018-05-15T03:20:28.513Z,1008.78
2018-05-15T03:21:28.499Z,1008.79
2018-05-15T03:22:28.500Z,1008.82
2018-05-15T03:23:34.244Z,1008.81
2018-05-15T03:24:28.376Z,1008.81
2018-05-15T03:25:28.410Z,1008.80
2018-05-15T03:26:28.486Z,1008.83
2018-05-15T03:27:28.425Z,1008.76
2018-05-15T03:28:28.473Z,1008.77
2018-05-15T03:29:28.760Z,1008.80
2018-05-15T03:30:28.749Z,1008.83
2018-05-15T03:31:28.742Z,1008.77
2018-05-15T03:32:28.770Z,1008.79
2018-05-15T03:33:28.758Z,1008.79
2018-05-15T03:34:30.755Z,1008.77
2018-05-15T03:35:28.757Z,1008.75
2018-05-15T03:36:28.772Z,1008.75
2018-05-15T03:37:28.769Z,1008.80
2018-05-15T03:38:28.994Z,1008.78
2018-05-15T03:39:28.735Z,1008.74
2018-05-15T03:40:28.746Z,1008.77
2018-05-15T03:41:28.796Z,1008.77
2018-05-15T03:42:28.755Z,1008.79
2018-05-15T03:43:28.793Z,1008.74
2018-05-15T03:44:28.801Z,1008.75
2018-05-15T03:45:28.737Z,1008.78
2018-05-15T03:46:28.788Z,1008.75
2018-05-15T03:47:28.791Z,1008.74
2018-05-15T03:48:28.801Z,1008.74
2018-05-15T03:49:28.804Z,1008.75
2018-05-15T03:50:28.826Z,1008.75
2018-05-15T03:51:28.814Z,1008.75
2018-05-15T03:52:28.817Z,1008.77
2018-05-15T03:53:28.769Z,1008.74
2018-05-15T03:54:28.806Z,1008.80
2018-05-15T03:55:28.769Z,1008.76
2018-05-15T03:56:28.762Z,1008.80
2018-05-15T03:57:28.763Z,1008.85
2018-05-15T03:58:28.786Z,1008.81
2018-05-15T03:59:28.800Z,1008.85
2018-05-15T04:00:28.814Z,1008.85
2018-05-15T04:01:28.239Z,1008.81
2018-05-15T04:02:28.804Z,1008.82
2018-05-15T04:03:28.787Z,1008.83
2018-05-15T04:04:28.802Z,1008.80
2018-05-15T04:05:28.765Z,1008.81
2018-05-15T04:06:28.750Z,1008.84
2018-05-15T04:07:28.739Z,1008.84
2018-05-15T04:08:28.732Z,1008.83
2018-05-15T04:09:28.750Z,1008.80
2018-05-15T04:10:28.735Z,1008.83
2018-05-15T04:11:28.743Z,1008.85
2018-05-15T04:12:28.736Z,1008.89
2018-05-15T04:13:28.800Z,1008.92
2018-05-15T04:14:28.791Z,1008.89
2018-05-15T04:15:28.792Z,1008.91
2018-05-15T04:16:28.749Z,1008.90
2018-05-15T04:17:28.744Z,1008.95
2018-05-15T04:18:28.176Z,1008.95
2018-05-15T04:19:28.790Z,1008.95
2018-05-15T04:20:28.769Z,1008.96
2018-05-15T04:21:28.793Z,1008.96
2018-05-15T04:22:28.757Z,1008.97
2018-05-15T04:23:28.815Z,1009.00
2018-05-15T04:24:28.766Z,1008.97
2018-05-15T04:25:29.045Z,1008.97
2018-05-15T04:26:28.787Z,1008.94
2018-05-15T04:27:28.816Z,1008.93
2018-05-15T04:28:28.871Z,1008.96
2018-05-15T04:29:28.752Z,1008.97
2018-05-15T04:30:28.801Z,1008.98
2018-05-15T04:31:28.822Z,1008.96
2018-05-15T04:32:28.804Z,1008.98
2018-05-15T04:33:29.038Z,1008.95
2018-05-15T04:34:28.735Z,1008.97
2018-05-15T04:35:28.741Z,1009.02
2018-05-15T04:36:28.736Z,1008.97
2018-05-15T04:37:28.744Z,1009.01
2018-05-15T04:38:28.768Z,1009.02
2018-05-15T04:39:28.750Z,1009.02
2018-05-15T04:40:28.742Z,1009.00
2018-05-15T04:41:28.745Z,1009.03
2018-05-15T04:42:28.791Z,1009.01
2018-05-15T04:43:28.986Z,1009.03
2018-05-15T04:44:28.744Z,1009.00
2018-05-15T04:45:28.754Z,1009.06
2018-05-15T04:46:28.808Z,1009.08
2018-05-15T04:47:28.757Z,1009.11
2018-05-15T04:48:28.750Z,1009.09
2018-05-15T04:49:30.823Z,1009.06
2018-05-15T04:50:28.811Z,1009.08
2018-05-15T04:51:29.038Z,1009.10
2018-05-15T04:52:28.805Z,1009.05
2018-05-15T04:53:31.072Z,1009.10
2018-05-15T04:54:28.808Z,1009.08
2018-05-15T04:55:28.818Z,1009.15
2018-05-15T04:56:28.825Z,1009.15
2018-05-15T04:57:28.730Z,1009.19
2018-05-15T04:58:28.747Z,1009.11
2018-05-15T04:59:28.749Z,1009.17
2018-05-15T05:00:28.757Z,1009.16
2018-05-15T05:01:28.769Z,1009.20
2018-05-15T05:02:28.752Z,1009.23
2018-05-15T05:03:28.768Z,1009.23
2018-05-15T05:04:28.809Z,1009.26
2018-05-15T05:05:29.068Z,1009.22
2018-05-15T05:06:28.246Z,1009.25
2018-05-15T05:07:28.813Z,1009.22
2018-05-15T05:08:28.830Z,1009.27
2018-05-15T05:09:28.857Z,1009.25
2018-05-15T05:10:29.210Z,1009.23
2018-05-15T05:11:28.806Z,1009.26
2018-05-15T05:12:28.753Z,1009.25
2018-05-15T05:13:28.811Z,1009.28
2018-05-15T05:14:29.026Z,1009.33
2018-05-15T05:15:28.825Z,1009.31
2018-05-15T05:16:29.068Z,1009.32
2018-05-15T05:17:28.315Z,1009.35
2018-05-15T05:18:29.125Z,1009.32
2018-05-15T05:19:28.575Z,1009.33
2018-05-15T05:20:29.206Z,1009.37
2018-05-15T05:21:28.839Z,1009.37
2018-05-15T05:22:28.810Z,1009.34
2018-05-15T05:23:28.828Z,1009.30
2018-05-15T05:24:28.834Z,1009.33
2018-05-15T05:25:29.071Z,1009.38
2018-05-15T05:26:29.071Z,1009.37
2018-05-15T05:27:28.267Z,1009.33
2018-05-15T05:28:28.828Z,1009.32
2018-05-15T05:29:29.081Z,1009.30
2018-05-15T05:30:28.753Z,1009.34
2018-05-15T05:31:29.385Z,1009.32
2018-05-15T05:32:28.571Z,1009.33
2018-05-15T05:33:28.786Z,1009.32
2018-05-15T05:34:29.072Z,1009.35
2018-05-15T05:35:29.075Z,1009.31
2018-05-15T05:36:29.365Z,1009.33
2018-05-15T05:37:29.146Z,1009.37
2018-05-15T05:38:28.772Z,1009.33
2018-05-15T05:39:28.794Z,1009.36
2018-05-15T05:40:29.082Z,1009.39
2018-05-15T05:41:28.814Z,1009.41
2018-05-15T05:42:28.825Z,1009.43
2018-05-15T05:43:28.822Z,1009.44
2018-05-15T05:44:28.811Z,1009.45
2018-05-15T05:45:28.800Z,1009.45
2018-05-15T05:46:29.188Z,1009.49
2018-05-15T05:47:29.084Z,1009.44
2018-05-15T05:48:29.397Z,1009.49
2018-05-15T05:49:27.393Z,1009.46
2018-05-15T05:50:29.135Z,1009.46
2018-05-15T05:51:28.752Z,1009.49
2018-05-15T05:52:28.810Z,1009.47
2018-05-15T05:53:28.785Z,1009.51
2018-05-15T05:54:29.079Z,1009.50
2018-05-15T05:55:29.072Z,1009.51
2018-05-15T05:56:29.372Z,1009.53
2018-05-15T05:57:29.080Z,1009.53
2018-05-15T05:58:28.355Z,1009.52
2018-05-15T05:59:29.083Z,1009.53
2018-05-15T06:00:28.818Z,1009.50
2018-05-15T06:01:29.063Z,1009.49
2018-05-15T06:02:28.591Z,1009.55
2018-05-15T06:03:29.075Z,1009.52
2018-05-15T06:04:28.823Z,1009.57
2018-05-15T06:05:29.085Z,1009.56
2018-05-15T06:06:29.031Z,1009.56
2018-05-15T06:07:28.843Z,1009.60
2018-05-15T06:08:28.807Z,1009.61
2018-05-15T06:09:29.084Z,1009.62
2018-05-15T06:10:28.796Z,1009.61
2018-05-15T06:11:29.086Z,1009.61
2018-05-15T06:12:28.879Z,1009.64
2018-05-15T06:13:29.440Z,1009.66
2018-05-15T06:14:29.499Z,1009.67
2018-05-15T06:15:29.086Z,1009.65
2018-05-15T06:16:29.087Z,1009.67
2018-05-15T06:17:29.563Z,1009.71
2018-05-15T06:18:29.091Z,1009.65
2018-05-15T06:19:28.787Z,1009.72
2018-05-15T06:21:28.792Z,1009.74
2018-05-15T06:22:28.822Z,1009.73
2018-05-15T06:23:29.094Z,1009.71
2018-05-15T06:24:29.081Z,1009.70
2018-05-15T06:25:29.109Z,1009.75
2018-05-15T06:26:29.377Z,1009.77
2018-05-15T06:27:29.652Z,1009.78
2018-05-15T06:28:28.830Z,1009.78
2018-05-15T06:29:29.125Z,1009.72
2018-05-15T06:30:29.072Z,1009.77
2018-05-15T06:31:29.088Z,1009.73
2018-05-15T06:32:28.410Z,1009.75
2018-05-15T06:33:28.819Z,1009.76
2018-05-15T06:34:28.359Z,1009.80
2018-05-15T06:35:29.095Z,1009.80
2018-05-15T06:36:29.103Z,1009.78
2018-05-15T06:37:28.589Z,1009.79
2018-05-15T06:38:29.667Z,1009.78
2018-05-15T06:39:29.080Z,1009.77
2018-05-15T06:40:36.096Z,1009.76
2018-05-15T06:41:29.083Z,1009.80
2018-05-15T06:42:28.885Z,1009.78
2018-05-15T06:43:28.815Z,1009.78
2018-05-15T06:44:29.120Z,1009.75
2018-05-15T06:45:28.834Z,1009.76
2018-05-15T06:46:30.648Z,1009.82
2018-05-15T06:47:28.882Z,1009.86
2018-05-15T06:48:28.553Z,1009.88
2018-05-15T06:49:28.889Z,1009.89
2018-05-15T06:50:28.845Z,1009.93
2018-05-15T06:51:29.555Z,1009.87
2018-05-15T06:52:28.562Z,1009.87
2018-05-15T06:53:29.157Z,1009.88
2018-05-15T06:54:28.908Z,1009.91
2018-05-15T06:55:28.883Z,1009.89
2018-05-15T06:56:29.439Z,1009.92
2018-05-15T06:57:29.413Z,1009.91
2018-05-15T06:58:29.081Z,1009.88
2018-05-15T06:59:28.871Z,1009.91
2018-05-15T07:00:28.865Z,1009.90
2018-05-15T07:01:29.168Z,1009.89
2018-05-15T07:02:29.151Z,1009.93
2018-05-15T07:03:29.873Z,1009.95
2018-05-15T07:04:28.864Z,1009.96
2018-05-15T07:05:29.077Z,1009.97
2018-05-15T07:06:29.139Z,1009.96
2018-05-15T07:07:29.445Z,1010.00
2018-05-15T07:08:29.107Z,1009.97
2018-05-15T07:09:29.154Z,1009.94
2018-05-15T07:10:29.165Z,1009.96
2018-05-15T07:11:29.091Z,1009.93
2018-05-15T07:12:29.058Z,1009.94
2018-05-15T07:13:28.885Z,1009.91
2018-05-15T07:14:29.085Z,1009.91
2018-05-15T07:15:28.859Z,1009.95
2018-05-15T07:16:28.517Z,1009.90
2018-05-15T07:17:29.156Z,1009.93
2018-05-15T07:18:29.178Z,1009.97
2018-05-15T07:19:29.185Z,1009.92
2018-05-15T07:20:29.392Z,1009.98
2018-05-15T07:21:29.113Z,1009.96
2018-05-15T07:22:28.964Z,1009.95
2018-05-15T07:23:29.361Z,1009.98
2018-05-15T07:24:28.998Z,1010.03
2018-05-15T07:25:29.115Z,1010.00
2018-05-15T07:26:29.262Z,1009.99
2018-05-15T07:27:29.534Z,1010.00
2018-05-15T07:28:28.891Z,1010.02
2018-05-15T07:29:29.427Z,1010.00
2018-05-15T07:30:29.014Z,1010.02
2018-05-15T07:31:29.422Z,1010.01
2018-05-15T07:32:29.134Z,1010.01
2018-05-15T07:33:28.499Z,1010.00
2018-05-15T07:34:28.871Z,1010.07
2018-05-15T07:35:28.849Z,1010.05
2018-05-15T07:36:28.905Z,1010.03
2018-05-15T07:37:30.653Z,1010.03
2018-05-15T07:38:29.137Z,1010.02
2018-05-15T07:39:28.929Z,1010.02
2018-05-15T07:40:29.160Z,1010.02
2018-05-15T07:41:29.421Z,1010.06
2018-05-15T07:42:29.127Z,1010.02
2018-05-15T07:43:29.113Z,1010.04
2018-05-15T07:44:28.970Z,1010.04
2018-05-15T07:45:29.525Z,1010.04
2018-05-15T07:46:31.629Z,1010.04
2018-05-15T07:47:28.977Z,1010.03
2018-05-15T07:48:29.566Z,1010.05
2018-05-15T07:49:29.080Z,1010.03
2018-05-15T07:50:29.091Z,1010.07
2018-05-15T07:51:29.103Z,1010.05
2018-05-15T07:52:29.186Z,1010.09
2018-05-15T07:53:29.556Z,1010.07
2018-05-15T07:54:35.357Z,1010.04
2018-05-15T07:55:34.891Z,1010.08
2018-05-15T07:56:29.572Z,1010.10
2018-05-15T07:57:29.130Z,1010.09
2018-05-15T07:58:28.933Z,1010.12
2018-05-15T07:59:29.651Z,1010.14
2018-05-15T08:00:29.430Z,1010.16
2018-05-15T08:01:29.432Z,1010.16
2018-05-15T08:02:29.746Z,1010.20
2018-05-15T08:03:29.133Z,1010.21
2018-05-15T08:04:29.223Z,1010.20
2018-05-15T08:05:28.991Z,1010.22
2018-05-15T08:06:28.847Z,1010.22
2018-05-15T08:07:28.865Z,1010.25
2018-05-15T08:08:29.413Z,1010.26
2018-05-15T08:09:29.456Z,1010.26
2018-05-15T08:10:29.376Z,1010.26
2018-05-15T08:11:28.851Z,1010.26
2018-05-15T08:12:28.870Z,1010.25
2018-05-15T08:13:29.130Z,1010.24
2018-05-15T08:14:28.878Z,1010.25
2018-05-15T08:15:29.614Z,1010.26
2018-05-15T08:16:29.453Z,1010.25
2018-05-15T08:17:29.316Z,1010.23
2018-05-15T08:18:28.994Z,1010.23
2018-05-15T08:19:29.438Z,1010.24
2018-05-15T08:20:29.495Z,1010.28
2018-05-15T08:21:28.964Z,1010.29
2018-05-15T08:22:29.508Z,1010.29
2018-05-15T08:23:28.892Z,1010.26
2018-05-15T08:24:28.996Z,1010.29
2018-05-15T08:25:29.052Z,1010.25
2018-05-15T08:26:29.190Z,1010.27
2018-05-15T08:27:29.163Z,1010.28
2018-05-15T08:28:29.746Z,1010.32
2018-05-15T08:29:29.091Z,1010.31
2018-05-15T08:30:28.890Z,1010.30
2018-05-15T08:31:29.096Z,1010.31
2018-05-15T08:32:29.534Z,1010.33
2018-05-15T08:33:30.972Z,1010.35
2018-05-15T08:34:29.620Z,1010.37
2018-05-15T08:35:29.523Z,1010.36
2018-05-15T08:36:29.517Z,1010.35
2018-05-15T08:37:29.703Z,1010.38
2018-05-15T08:38:28.926Z,1010.39
2018-05-15T08:39:29.141Z,1010.40
2018-05-15T08:40:29.762Z,1010.43
2018-05-15T08:41:29.262Z,1010.43
2018-05-15T08:42:30.012Z,1010.44
2018-05-15T08:43:29.039Z,1010.35
2018-05-15T08:44:29.248Z,1010.43
2018-05-15T08:45:29.507Z,1010.38
2018-05-15T08:46:29.594Z,1010.40
2018-05-15T08:47:29.086Z,1010.40
2018-05-15T08:48:29.077Z,1010.39
2018-05-15T08:49:28.958Z,1010.39
2018-05-15T08:50:29.011Z,1010.37
2018-05-15T08:51:29.783Z,1010.34
2018-05-15T08:52:29.542Z,1010.35
2018-05-15T08:53:29.222Z,1010.35
2018-05-15T08:54:28.997Z,1010.38
2018-05-15T08:55:29.693Z,1010.35
2018-05-15T08:56:29.670Z,1010.33
2018-05-15T08:57:29.447Z,1010.35
2018-05-15T08:58:29.576Z,1010.34
2018-05-15T08:59:28.724Z,1010.34
2018-05-15T09:00:29.155Z,1010.41
2018-05-15T09:01:29.163Z,1010.40
2018-05-15T09:02:29.659Z,1010.39
2018-05-15T09:03:29.459Z,1010.34
2018-05-15T09:04:29.473Z,1010.37
2018-05-15T09:05:29.666Z,1010.33
2018-05-15T09:06:29.427Z,1010.38
2018-05-15T09:07:29.157Z,1010.33
2018-05-15T09:08:29.441Z,1010.36
2018-05-15T09:09:29.183Z,1010.37
2018-05-15T09:10:29.668Z,1010.30
2018-05-15T09:11:28.960Z,1010.32
2018-05-15T09:12:29.459Z,1010.33
2018-05-15T09:13:29.148Z,1010.29
2018-05-15T09:14:29.617Z,1010.23
2018-05-15T09:15:29.679Z,1010.29
2018-05-15T09:16:28.992Z,1010.31
2018-05-15T09:17:29.058Z,1010.31
2018-05-15T09:18:29.058Z,1010.32
2018-05-15T09:19:29.746Z,1010.36
2018-05-15T09:20:29.192Z,1010.35
2018-05-15T09:21:29.696Z,1010.32
2018-05-15T09:22:28.965Z,1010.30
2018-05-15T09:23:29.529Z,1010.31
2018-05-15T09:25:35.659Z,1010.33
2018-05-15T09:26:29.197Z,1010.31
2018-05-15T09:27:29.203Z,1010.34
2018-05-15T09:28:29.357Z,1010.32
2018-05-15T09:29:29.229Z,1010.35
2018-05-15T09:30:29.227Z,1010.30
2018-05-15T09:31:29.461Z,1010.37
2018-05-15T09:32:29.942Z,1010.33
2018-05-15T09:33:29.975Z,1010.35
2018-05-15T09:34:30.019Z,1010.34
2018-05-15T09:35:29.712Z,1010.32
2018-05-15T09:36:29.510Z,1010.29
2018-05-15T09:37:30.101Z,1010.30
2018-05-15T09:38:29.637Z,1010.31
2018-05-15T09:39:29.521Z,1010.35
2018-05-15T09:40:29.781Z,1010.26
2018-05-15T09:41:29.705Z,1010.25
2018-05-15T09:42:29.617Z,1010.27
2018-05-15T09:43:28.784Z,1010.27
2018-05-15T09:44:29.968Z,1010.33
2018-05-15T09:45:29.715Z,1010.35
2018-05-15T09:46:29.421Z,1010.33
2018-05-15T09:47:29.675Z,1010.34
2018-05-15T09:48:29.217Z,1010.34
2018-05-15T09:49:29.465Z,1010.34
2018-05-15T09:50:29.517Z,1010.33
2018-05-15T09:51:29.689Z,1010.33
2018-05-15T09:52:29.705Z,1010.32
2018-05-15T09:53:29.672Z,1010.27
2018-05-15T09:54:30.152Z,1010.36
2018-05-15T09:55:31.279Z,1010.39
2018-05-15T09:56:30.091Z,1010.40
2018-05-15T09:57:30.813Z,1010.39
2018-05-15T09:58:29.443Z,1010.37
2018-05-15T09:59:30.010Z,1010.37
2018-05-15T10:00:29.446Z,1010.32
2018-05-15T10:01:29.464Z,1010.38
2018-05-15T10:02:29.430Z,1010.38
2018-05-15T10:03:29.724Z,1010.37
2018-05-15T10:04:30.081Z,1010.40
2018-05-15T10:05:29.792Z,1010.42
2018-05-15T10:06:30.187Z,1010.37
2018-05-15T10:07:29.467Z,1010.31
2018-05-15T10:08:29.986Z,1010.36
2018-05-15T10:09:29.632Z,1010.36
2018-05-15T10:10:29.663Z,1010.38
2018-05-15T10:11:29.634Z,1010.35
2018-05-15T10:12:29.713Z,1010.39
2018-05-15T10:13:29.587Z,1010.36
2018-05-15T10:14:29.995Z,1010.37
2018-05-15T10:15:30.184Z,1010.35
2018-05-15T10:16:29.963Z,1010.34
2018-05-15T10:17:30.036Z,1010.33
2018-05-15T10:18:29.639Z,1010.33
2018-05-15T10:19:29.992Z,1010.41
2018-05-15T10:20:29.732Z,1010.39
2018-05-15T10:21:29.521Z,1010.35
2018-05-15T10:22:29.691Z,1010.36
2018-05-15T10:23:29.694Z,1010.34
2018-05-15T10:24:32.210Z,1010.32
2018-05-15T10:25:30.047Z,1010.29
2018-05-15T10:26:29.986Z,1010.32
2018-05-15T10:27:29.969Z,1010.31
2018-05-15T10:28:29.524Z,1010.32
2018-05-15T10:29:29.895Z,1010.33
2018-05-15T10:30:29.687Z,1010.34
2018-05-15T10:31:29.772Z,1010.30
2018-05-15T10:32:32.206Z,1010.30
2018-05-15T10:33:29.628Z,1010.31
2018-05-15T10:34:29.724Z,1010.36
2018-05-15T10:35:30.023Z,1010.31
2018-05-15T10:36:29.749Z,1010.30
2018-05-15T10:37:30.022Z,1010.32
2018-05-15T10:38:31.238Z,1010.24
2018-05-15T10:39:29.469Z,1010.27
2018-05-15T10:40:31.234Z,1010.22
2018-05-15T10:41:29.434Z,1010.22
2018-05-15T10:42:28.738Z,1010.26
2018-05-15T10:43:35.506Z,1010.25
2018-05-15T10:44:29.474Z,1010.28
2018-05-15T10:45:29.428Z,1010.28
2018-05-15T10:46:29.909Z,1010.27
2018-05-15T10:47:29.737Z,1010.31
2018-05-15T10:48:29.701Z,1010.39
2018-05-15T10:49:29.971Z,1010.35
2018-05-15T10:50:29.515Z,1010.34
2018-05-15T10:51:29.600Z,1010.33
2018-05-15T10:53:30.140Z,1010.27
2018-05-15T10:54:30.101Z,1010.27
2018-05-15T10:55:29.679Z,1010.31
2018-05-15T10:56:30.297Z,1010.33
2018-05-15T10:57:29.719Z,1010.37
2018-05-15T10:58:30.106Z,1010.30
2018-05-15T10:59:29.754Z,1010.29
2018-05-15T11:00:29.749Z,1010.22
2018-05-15T11:01:30.337Z,1010.24
2018-05-15T11:02:29.513Z,1010.21
2018-05-15T11:03:30.215Z,1010.22
2018-05-15T11:04:29.819Z,1010.23
2018-05-15T11:05:29.751Z,1010.29
2018-05-15T11:06:29.444Z,1010.31
2018-05-15T11:07:30.133Z,1010.22
2018-05-15T11:08:30.170Z,1010.16
2018-05-15T11:09:32.031Z,1010.20
2018-05-15T11:10:29.958Z,1010.13
2018-05-15T11:11:29.530Z,1010.16
2018-05-15T11:12:29.795Z,1010.15
2018-05-15T11:13:30.195Z,1010.18
2018-05-15T11:14:29.216Z,1010.17
2018-05-15T11:15:30.098Z,1010.18
2018-05-15T11:16:29.301Z,1010.19
2018-05-15T11:17:29.467Z,1010.20
2018-05-15T11:18:29.724Z,1010.19
2018-05-15T11:19:29.280Z,1010.22
2018-05-15T11:20:31.749Z,1010.19
2018-05-15T11:21:30.116Z,1010.22
2018-05-15T11:22:30.213Z,1010.20
2018-05-15T11:23:30.218Z,1010.22
2018-05-15T11:24:29.832Z,1010.21
2018-05-15T11:25:30.139Z,1010.20
2018-05-15T11:26:30.225Z,1010.22
2018-05-15T11:27:29.737Z,1010.20
2018-05-15T11:28:30.257Z,1010.26
2018-05-15T11:29:29.576Z,1010.20
2018-05-15T11:30:29.792Z,1010.23
2018-05-15T11:31:29.766Z,1010.19
2018-05-15T11:32:29.816Z,1010.19
2018-05-15T11:33:30.066Z,1010.21
2018-05-15T11:34:30.252Z,1010.22
2018-05-15T11:35:29.293Z,1010.21
2018-05-15T11:36:30.250Z,1010.23
2018-05-15T11:37:29.791Z,1010.22
2018-05-15T11:38:30.143Z,1010.22
2018-05-15T11:39:30.186Z,1010.21
2018-05-15T11:40:30.351Z,1010.20
2018-05-15T11:41:30.317Z,1010.18
2018-05-15T11:42:30.327Z,1010.23
2018-05-15T11:43:30.622Z,1010.20
2018-05-15T11:44:30.181Z,1010.23
2018-05-15T11:45:30.438Z,1010.20
2018-05-15T11:46:29.725Z,1010.24
2018-05-15T11:47:30.595Z,1010.30
2018-05-15T11:48:30.047Z,1010.28
2018-05-15T11:49:31.511Z,1010.27
2018-05-15T11:50:30.883Z,1010.31
2018-05-15T11:51:31.569Z,1010.30
2018-05-15T11:52:31.546Z,1010.28
2018-05-15T11:53:30.271Z,1010.28
2018-05-15T11:54:30.687Z,1010.24
2018-05-15T11:55:35.292Z,1010.23
2018-05-15T11:56:30.098Z,1010.21
2018-05-15T11:57:29.790Z,1010.25
2018-05-15T11:58:30.527Z,1010.19
2018-05-15T11:59:30.195Z,1010.16
2018-05-15T12:00:30.198Z,1010.17
2018-05-15T12:01:30.857Z,1010.14
2018-05-15T12:02:30.643Z,1010.16
2018-05-15T12:03:30.557Z,1010.16
2018-05-15T12:04:30.541Z,1010.16
2018-05-15T12:05:30.542Z,1010.24
2018-05-15T12:06:30.770Z,1010.15
2018-05-15T12:07:30.238Z,1010.17
2018-05-15T12:08:30.596Z,1010.11